• Join FlightAware (Why Join?)
  • Login
  • US Flag 
06:39AM EDT


 

Airport Tracker/Info


-or-


 

Live Flight TrackerFlight Track Log ✈ SWA232 ✈ 01-Aug-2013 ✈ KMDW - KDSM

Flight Track Log - Related Links

Times and Time Zones

All times are in EDT time to prevent confusion due to time zone crossing. See the SWA232 flight status page for this flight to view local times or setup timezone preferences in your user account.

Time Position Orientation Groundspeed Altitude Reporting Facility
EDT Latitude Longitude Course Direction KTS MPH feet Rate Location/Type
11:54PM 41.7833 -87.8167 253° West 207 238 2,900  Level Chicago TRACON
11:55PM 41.7717 -87.8678 253° West 208 239 3,200 660 Climbing Chicago Center
11:56PM 41.7603 -87.9456 259° West 223 257 4,000 420 Climbing Chicago Center
11:57PM 41.7567 -88.0244 267° West 218 251 4,100 1,440 Climbing Chicago Center
11:58PM 41.7517 -88.1139 266° West 235 270 7,000 3,360 Climbing Chicago Center
11:59PM 41.7692 -88.2069 284° West 260 299 11,000 2,400 Climbing Chicago Center
12:00AM 41.7614 -88.3064 264° West 276 318 12,000 540 Climbing Chicago Center
12:01AM 41.7514 -88.4053 262° West 272 313 12,200 960 Climbing Chicago Center
12:02AM 41.7408 -88.5208 263° West 317 365 14,000 1,860 Climbing Chicago Center
12:03AM 41.7308 -88.6781 265° West 357 411 16,000 1,320 Climbing Chicago Center
12:04AM 41.7250 -88.8097 267° West 360 414 16,700 1,200 Climbing Chicago Center
12:05AM 41.7197 -88.9419 267° West 357 411 18,500 2,040 Climbing Chicago Center
12:06AM 41.7125 -89.0794 266° West 371 427 20,900 1,380 Climbing Chicago Center
12:07AM 41.7064 -89.2217 267° West 385 443 21,400 1,440 Climbing Chicago Center
12:08AM 41.6972 -89.3625 265° West 383 441 23,900 2,280 Climbing Chicago Center
12:09AM 41.6872 -89.5058 265° West 389 448 26,000 2,160 Climbing Chicago Center
12:10AM 41.6750 -89.6464 263° West 406 467 28,300 2,520 Climbing Chicago Center
12:11AM 41.6697 -89.7875 267° West 388 447 31,200 1,800 Climbing Chicago Center
12:12AM 41.6683 -89.9483 269° West 366 421 32,000 360 Climbing Chicago Center
12:13AM 41.6656 -90.0814 268° West 361 415 32,000  Level Chicago Center
12:14AM 41.6622 -90.2175 268° West 366 421 32,000  Level Chicago Center
12:15AM 41.6592 -90.3536 268° West 367 422 32,000  Level Chicago Center
12:16AM 41.6553 -90.4897 268° West 369 425 32,000  Level Chicago Center
12:17AM 41.6514 -90.6264 268° West 369 425 32,000  Level Chicago Center
12:18AM 41.6481 -90.7522 268° West 366 421 32,000  Level Chicago Center
12:19AM 41.6444 -90.8836 268° West 360 414 32,000  Level Chicago Center
12:20AM 41.6414 -91.0181 268° West 363 418 32,000  Level Chicago Center
12:21AM 41.6375 -91.1500 268° West 358 412 32,000  Level Chicago Center
12:22AM 41.6319 -91.3078 267° West 358 412 32,000  Level Chicago Center
12:23AM 41.6275 -91.4400 267° West 358 412 32,000  Level Chicago Center
12:24AM 41.6242 -91.5694 268° West 354 407 32,000 -540 Level Chicago Center
12:25AM 41.6194 -91.7031 267° West 358 412 31,000 -1,020 Descending Chicago Center
12:26AM 41.6144 -91.8403 267° West 369 425 30,000 -960 Descending Chicago Center
12:27AM 41.6089 -91.9808 267° West 379 436 29,100 -960 Descending Chicago Center
12:28AM 41.6036 -92.1231 267° West 386 444 28,100 -1,020 Descending Chicago Center
12:29AM 41.5978 -92.2656 267° West 387 445 27,100 -1,020 Descending Chicago Center
12:30AM 41.5933 -92.4083 268° West 388 447 26,100 -1,320 Descending Chicago Center
12:31AM 41.5872 -92.5536 267° West 392 451 24,500 -1,680 Descending Chicago Center
12:32AM 41.5808 -92.6972 267° West 391 450 22,800 -1,980 Descending Chicago Center
12:33AM 41.5731 -92.8381 266° West 388 447 20,600 -2,280 Descending Chicago Center
12:34AM 41.5658 -92.9744 266° West 378 435 18,300 -2,820 Descending Chicago Center
12:35AM 41.5806 -93.1328 277° West 364 419 15,000 -3,060 Descending Chicago Center
12:36AM 41.5967 -93.2644 279° West 362 417 12,200 -2,520 Descending Chicago Center
12:37AM 41.6158 -93.3892 282° West 355 409 10,000 -1,440 Descending Chicago Center
12:38AM 41.6361 -93.4489 294° West 300 345 9,800 -1,080 Descending Minneapolis Center
12:38AM 41.6408 -93.5261 275° West 276 318 8,600 -1,620 Descending Minneapolis Center
12:39AM 41.6575 -93.6189 284° West 261 300 7,100 -1,620 Descending Minneapolis Center
12:40AM 41.6892 -93.7028 297° West 259 298 5,400 -1,560 Descending Minneapolis Center
12:41AM 41.7239 -93.7747 303° West 240 276 4,000 -1,140 Descending Minneapolis Center
12:43AM 41.6697 -93.7983 198° South 207 238 3,100 -720 Descending Minneapolis Center
12:44AM 41.6219 -93.7794 164° South 185 213 2,600 -540 Descending Minneapolis Center
12:45AM 41.5833 -93.7128 128° Southeast 162 186 1,900 -660 Descending Minneapolis Center
12:46AM 41.5539 -93.6864 146° Southeast 154 177 1,200 -540 Descending Minneapolis Center
12:47AM 41.5286 -93.6483 132° Southeast 148 170 900 -300 Descending Minneapolis Center